Time;durP1;ratioP1;P1;durP2;ratioP2;P2;SDS_P1;SDS_P2;PMS_P1;PMS_P2;Temp;Humidity;BMP_temperature;BMP_pressure;BME280_temperature;BME280_humidity;BME280_pressure;Samples;Min_cycle;Max_cycle;Signal;HPM_P1;HPM_P2
2023/10/01 00:01:40;;;;;;;22.20;9.02;;;;;9.30;97286.00;;;;8235921;28;21059;-66
2023/10/01 00:05:44;;;;;;;17.37;8.07;;;;;9.20;97291.00;;;;8239501;28;20683;-67
2023/10/01 00:09:47;;;;;;;23.87;9.63;;;;;9.10;97287.00;;;;8243707;28;20233;-66
2023/10/01 00:13:52;;;;;;;21.67;9.33;;;;;9.10;97290.00;;;;8238196;28;20573;-66
2023/10/01 00:17:55;;;;;;;73.10;11.13;;;;;9.00;97292.00;;;;8241931;28;20319;-66
2023/10/01 00:22:00;;;;;;;19.47;8.77;;;;;9.00;97285.00;;;;8244342;28;20294;-66
2023/10/01 00:26:04;;;;;;;28.00;10.70;;;;;8.90;97275.00;;;;8234100;28;20404;-66
2023/10/01 00:30:10;;;;;;;20.27;9.63;;;;;8.90;97281.00;;;;8245912;28;20588;-67
2023/10/01 00:34:13;;;;;;;27.13;10.77;;;;;8.90;97282.00;;;;8230545;28;20673;-66
2023/10/01 00:38:16;;;;;;;26.23;9.60;;;;;8.80;97286.00;;;;8246857;28;20245;-66
2023/10/01 00:42:25;;;;;;;27.57;9.37;;;;;8.90;97274.00;;;;8245740;28;20286;-67
2023/10/01 00:46:29;;;;;;;20.63;8.23;;;;;8.80;97269.00;;;;8236039;28;20203;-67
2023/10/01 00:50:34;;;;;;;19.10;8.57;;;;;8.90;97266.00;;;;8236936;28;20707;-67
2023/10/01 00:54:38;;;;;;;21.50;8.57;;;;;8.80;97256.00;;;;8239033;28;20282;-67
2023/10/01 00:58:42;;;;;;;22.83;8.33;;;;;8.70;97258.00;;;;8240555;28;20205;-67
2023/10/01 01:02:57;;;;;;;16.30;8.10;;;;;8.60;97257.00;;;;8236311;28;20253;-67
2023/10/01 01:07:03;;;;;;;18.67;8.03;;;;;8.60;97261.00;;;;8248026;28;20703;-67
2023/10/01 01:11:07;;;;;;;24.07;9.03;;;;;8.60;97254.00;;;;8246291;28;20241;-67
2023/10/01 01:15:12;;;;;;;20.27;8.40;;;;;8.50;97265.00;;;;8240368;28;20203;-67
2023/10/01 01:19:19;;;;;;;17.10;7.40;;;;;8.40;97262.00;;;;8240379;28;20667;-67
2023/10/01 01:23:24;;;;;;;39.03;8.83;;;;;8.50;97264.00;;;;8241730;28;20194;-67
2023/10/01 01:27:30;;;;;;;22.23;8.90;;;;;8.60;97261.00;;;;8233793;28;20195;-67
2023/10/01 01:31:45;;;;;;;26.20;9.80;;;;;8.60;97259.00;;;;8235626;28;20250;-67
2023/10/01 01:35:50;;;;;;;18.73;7.33;;;;;8.60;97255.00;;;;8239565;28;20422;-67
2023/10/01 01:39:57;;;;;;;25.93;8.33;;;;;8.60;97254.00;;;;8244915;28;20210;-66
2023/10/01 01:44:00;;;;;;;21.90;7.97;;;;;8.50;97254.00;;;;8248546;28;20822;-67
2023/10/01 01:48:21;;;;;;;18.50;7.80;;;;;8.40;97264.00;;;;8242898;28;20231;-67
2023/10/01 01:52:26;;;;;;;21.33;8.17;;;;;8.30;97242.00;;;;8240346;28;20230;-67
2023/10/01 01:56:39;;;;;;;20.50;9.30;;;;;8.30;97242.00;;;;8236771;28;20704;-67
2023/10/01 02:01:00;;;;;;;21.53;8.30;;;;;8.20;97252.00;;;;8235692;28;20207;-67
2023/10/01 02:05:09;;;;;;;19.80;7.83;;;;;8.20;97248.00;;;;8231468;28;20227;-67
2023/10/01 02:09:14;;;;;;;69.90;9.00;;;;;8.30;97243.00;;;;8231664;28;20207;-67
2023/10/01 02:13:19;;;;;;;22.23;8.17;;;;;8.30;97247.00;;;;8232593;28;20241;-66
2023/10/01 02:17:25;;;;;;;19.20;8.10;;;;;8.30;97245.00;;;;8238531;28;20190;-66
2023/10/01 02:21:42;;;;;;;19.90;8.33;;;;;8.50;97242.00;;;;8234385;28;20562;-66
2023/10/01 02:25:47;;;;;;;19.73;8.13;;;;;8.60;97246.00;;;;8239086;28;20281;-66
2023/10/01 02:34:12;;;;;;;23.80;8.23;;;;;8.40;97236.00;;;;8233522;28;20257;-66
2023/10/01 02:42:37;;;;;;;18.57;7.67;;;;;8.30;97237.00;;;;8239478;28;20285;-67
2023/10/01 02:46:42;;;;;;;14.87;7.10;;;;;8.40;97248.00;;;;8245560;28;20203;-66
2023/10/01 02:50:51;;;;;;;16.23;8.47;;;;;8.50;97241.00;;;;8248207;28;20273;-66
2023/10/01 02:54:57;;;;;;;19.47;7.57;;;;;8.40;97245.00;;;;8237172;28;20207;-67
2023/10/01 02:59:08;;;;;;;15.47;7.57;;;;;8.30;97229.00;;;;8241887;28;20286;-66
2023/10/01 03:03:17;;;;;;;20.10;7.87;;;;;8.30;97234.00;;;;8354317;22;20396;-66
2023/10/01 03:07:22;;;;;;;16.37;7.33;;;;;8.30;97238.00;;;;8301576;28;20190;-66
2023/10/01 03:11:37;;;;;;;17.23;8.13;;;;;8.30;97235.00;;;;8296541;28;20221;-66
2023/10/01 03:15:41;;;;;;;17.17;7.60;;;;;8.30;97241.00;;;;8301832;28;20554;-66
2023/10/01 03:19:52;;;;;;;15.03;7.03;;;;;8.30;97245.00;;;;8313049;28;20831;-66
2023/10/01 03:23:55;;;;;;;21.60;7.97;;;;;8.20;97243.00;;;;8296451;28;20201;-66
2023/10/01 03:27:59;;;;;;;14.37;7.10;;;;;8.20;97235.00;;;;8292882;28;20202;-66
2023/10/01 03:32:27;;;;;;;22.90;8.07;;;;;8.20;97239.00;;;;8297506;28;20225;-67
2023/10/01 03:36:32;;;;;;;14.77;6.60;;;;;8.20;97247.00;;;;8311576;28;20197;-66
2023/10/01 03:40:57;;;;;;;18.27;8.17;;;;;8.30;97235.00;;;;8291210;28;20213;-66
2023/10/01 03:45:37;;;;;;;17.30;7.33;;;;;8.30;97233.00;;;;8291324;28;20209;-66
2023/10/01 03:49:37;;;;;;;21.07;7.70;;;;;8.20;97233.00;;;;8299872;28;20687;-66
2023/10/01 03:53:43;;;;;;;17.73;7.87;;;;;8.20;97236.00;;;;8298815;28;20312;-66
2023/10/01 03:58:05;;;;;;;17.90;6.90;;;;;8.10;97240.00;;;;8307808;28;20739;-66
2023/10/01 04:02:27;;;;;;;14.50;6.80;;;;;8.00;97227.00;;;;8308438;28;20765;-66
2023/10/01 04:06:32;;;;;;;19.20;6.87;;;;;7.90;97221.00;;;;8297611;28;21637;-65
2023/10/01 04:10:38;;;;;;;30.73;7.60;;;;;7.80;97222.00;;;;8298340;28;20242;-65
2023/10/01 04:14:48;;;;;;;14.77;6.97;;;;;7.70;97231.00;;;;8293594;28;20231;-65
2023/10/01 04:18:51;;;;;;;12.73;6.00;;;;;7.70;97225.00;;;;8315878;28;20200;-65
2023/10/01 04:23:04;;;;;;;20.10;7.50;;;;;7.60;97211.00;;;;8304193;28;20208;-65
2023/10/01 04:27:23;;;;;;;16.97;7.73;;;;;7.60;97215.00;;;;8316142;28;20625;-65
2023/10/01 04:31:49;;;;;;;23.23;8.77;;;;;7.60;97221.00;;;;8308076;28;20233;-65
2023/10/01 04:35:55;;;;;;;21.63;7.80;;;;;7.60;97221.00;;;;8305978;28;20237;-65
2023/10/01 04:39:58;;;;;;;17.60;7.70;;;;;7.50;97218.00;;;;8293333;28;20201;-65
2023/10/01 04:44:06;;;;;;;19.47;7.90;;;;;7.50;97208.00;;;;8301003;28;20198;-65
2023/10/01 04:48:15;;;;;;;17.80;7.07;;;;;7.60;97213.00;;;;8309327;28;20883;-65
2023/10/01 04:52:23;;;;;;;19.20;7.27;;;;;7.70;97216.00;;;;8318051;28;20663;-65
2023/10/01 04:56:27;;;;;;;21.90;7.83;;;;;7.60;97225.00;;;;8313587;28;20934;-65
2023/10/01 05:00:33;;;;;;;16.73;7.93;;;;;7.60;97217.00;;;;8312791;28;20645;-65
2023/10/01 05:04:36;;;;;;;22.37;8.00;;;;;7.50;97221.00;;;;8303346;28;20638;-65
2023/10/01 05:08:40;;;;;;;14.77;6.90;;;;;7.50;97218.00;;;;8314643;28;20314;-65
2023/10/01 05:12:44;;;;;;;22.37;8.70;;;;;7.40;97226.00;;;;8308681;28;20316;-65
2023/10/01 05:16:49;;;;;;;18.87;8.63;;;;;7.50;97215.00;;;;8306183;28;20908;-65
2023/10/01 05:20:58;;;;;;;21.57;7.43;;;;;7.50;97222.00;;;;8312352;28;20216;-65
2023/10/01 05:25:03;;;;;;;19.67;9.07;;;;;7.60;97225.00;;;;8308291;28;20292;-66
2023/10/01 05:29:07;;;;;;;20.20;7.37;;;;;7.60;97243.00;;;;8309003;28;20240;-66
2023/10/01 05:33:12;;;;;;;20.20;7.67;;;;;7.50;97248.00;;;;8299961;28;20233;-66
2023/10/01 05:37:24;;;;;;;19.30;8.00;;;;;7.60;97253.00;;;;8315547;28;20286;-66
2023/10/01 05:41:32;;;;;;;18.87;7.77;;;;;7.60;97258.00;;;;8299289;28;20193;-66
2023/10/01 05:45:39;;;;;;;17.27;7.13;;;;;7.70;97254.00;;;;8305021;28;20201;-66
2023/10/01 05:49:49;;;;;;;20.23;7.77;;;;;7.70;97265.00;;;;8300972;28;20289;-66
2023/10/01 05:53:52;;;;;;;18.50;7.40;;;;;7.80;97271.00;;;;8297767;28;20237;-66
2023/10/01 05:58:12;;;;;;;18.03;8.17;;;;;7.90;97272.00;;;;8313198;28;20197;-66
2023/10/01 06:02:31;;;;;;;13.33;6.80;;;;;8.00;97264.00;;;;8308408;28;20284;-66
2023/10/01 06:06:43;;;;;;;18.67;7.47;;;;;8.20;97263.00;;;;8307255;28;20221;-66
2023/10/01 06:10:59;;;;;;;21.33;7.97;;;;;8.20;97268.00;;;;8306930;28;20574;-66
2023/10/01 06:15:11;;;;;;;19.50;7.37;;;;;8.40;97280.00;;;;8309159;28;20288;-66
2023/10/01 06:19:15;;;;;;;19.30;7.90;;;;;8.50;97282.00;;;;8307986;28;21075;-67
2023/10/01 06:23:19;;;;;;;14.83;7.03;;;;;8.70;97289.00;;;;8301881;28;20197;-67
2023/10/01 06:27:27;;;;;;;15.33;6.93;;;;;8.80;97283.00;;;;8301269;28;20197;-66
2023/10/01 06:32:00;;;;;;;16.17;7.20;;;;;9.00;97290.00;;;;8310444;28;20249;-66
2023/10/01 06:36:23;;;;;;;17.47;7.37;;;;;9.20;97292.00;;;;8313095;28;20304;-66
2023/10/01 06:40:40;;;;;;;15.97;6.77;;;;;9.40;97298.00;;;;8310705;28;20209;-66
2023/10/01 06:45:00;;;;;;;16.47;7.63;;;;;9.60;97309.00;;;;8301340;28;20202;-66
2023/10/01 06:49:12;;;;;;;15.53;7.77;;;;;9.90;97313.00;;;;8305464;28;20734;-67
2023/10/01 06:53:44;;;;;;;23.07;8.10;;;;;10.10;97318.00;;;;8310094;28;20234;-67
2023/10/01 06:57:56;;;;;;;17.60;8.47;;;;;10.40;97322.00;;;;8304981;28;20194;-67
2023/10/01 07:02:04;;;;;;;21.00;8.40;;;;;10.70;97319.00;;;;8293105;28;20309;-67
2023/10/01 07:06:08;;;;;;;18.87;10.07;;;;;10.90;97321.00;;;;8299829;28;20329;-68
2023/10/01 07:10:13;;;;;;;23.35;7.75;;;;;11.10;97324.00;;;;8304016;28;20620;-66
2023/10/01 07:14:30;;;;;;;15.95;7.88;;;;;11.40;97329.00;;;;8299956;28;21093;-66
2023/10/01 07:18:37;;;;;;;21.10;8.38;;;;;11.60;97325.00;;;;8299671;28;20236;-67
2023/10/01 07:22:44;;;;;;;27.45;9.52;;;;;11.80;97329.00;;;;8295351;28;20240;-66
2023/10/01 07:26:48;;;;;;;23.55;8.20;;;;;11.90;97329.00;;;;8307709;28;20591;-65
2023/10/01 07:30:56;;;;;;;32.55;9.20;;;;;12.20;97319.00;;;;8296451;28;20204;-65
2023/10/01 07:35:06;;;;;;;20.05;8.90;;;;;12.30;97310.00;;;;8297801;28;20309;-65
2023/10/01 07:39:13;;;;;;;19.33;8.40;;;;;12.50;97316.00;;;;8295611;28;20363;-65
2023/10/01 07:43:16;;;;;;;21.48;8.05;;;;;12.60;97322.00;;;;8297492;28;20204;-65
2023/10/01 07:47:32;;;;;;;20.50;7.82;;;;;12.70;97317.00;;;;8299751;28;20204;-65
2023/10/01 07:51:38;;;;;;;21.65;8.65;;;;;12.90;97331.00;;;;8305803;28;20239;-65
2023/10/01 07:55:41;;;;;;;16.33;9.07;;;;;13.10;97330.00;;;;8308500;28;20633;-64
2023/10/01 07:59:46;;;;;;;21.42;9.68;;;;;13.40;97334.00;;;;8312263;28;20208;-65
2023/10/01 08:03:55;;;;;;;19.98;10.25;;;;;13.70;97334.00;;;;8306856;28;20272;-66
2023/10/01 08:07:59;;;;;;;24.70;9.55;;;;;14.00;97332.00;;;;8302075;28;20709;-66
2023/10/01 08:12:06;;;;;;;22.52;9.63;;;;;14.30;97340.00;;;;8307964;28;20223;-67
2023/10/01 08:16:13;;;;;;;29.55;9.75;;;;;14.60;97344.00;;;;8305769;28;20289;-64
2023/10/01 08:20:21;;;;;;;23.35;9.82;;;;;15.00;97346.00;;;;8311153;28;20566;-64
2023/10/01 08:24:33;;;;;;;21.83;9.45;;;;;15.40;97347.00;;;;8306150;28;20221;-65
2023/10/01 08:28:43;;;;;;;20.85;9.35;;;;;15.70;97351.00;;;;8304160;28;20231;-66
2023/10/01 08:32:49;;;;;;;18.70;7.68;;;;;16.00;97347.00;;;;8305873;28;20232;-65
2023/10/01 08:36:55;;;;;;;22.23;8.25;;;;;16.40;97346.00;;;;8306005;28;20198;-64
2023/10/01 08:41:03;;;;;;;16.25;7.57;;;;;16.70;97346.00;;;;8306063;28;20799;-65
2023/10/01 08:45:11;;;;;;;17.70;7.60;;;;;17.00;97345.00;;;;8299831;28;20288;-65
2023/10/01 08:49:23;;;;;;;16.73;7.80;;;;;17.30;97351.00;;;;8313854;28;20216;-64
2023/10/01 08:53:36;;;;;;;18.13;7.85;;;;;17.70;97349.00;;;;8308401;28;20231;-65
2023/10/01 08:57:45;;;;;;;17.95;7.57;;;;;17.90;97353.00;;;;8305395;28;20199;-64
2023/10/01 09:01:52;;;;;;;19.25;7.95;;;;;18.30;97353.00;;;;8311844;28;20304;-64
2023/10/01 09:06:03;;;;;;;16.85;7.80;;;;;18.90;97350.00;;;;8298818;28;20253;-64
2023/10/01 09:10:15;;;;;;;16.38;7.35;;;;;19.40;97354.00;;;;8301456;28;20288;-64
2023/10/01 09:14:19;;;;;;;17.20;7.10;;;;;19.90;97355.00;;;;8303134;28;20217;-63
2023/10/01 09:18:24;;;;;;;18.10;7.38;;;;;20.40;97361.00;;;;8297416;28;20237;-64
2023/10/01 09:22:40;;;;;;;16.02;7.18;;;;;20.90;97361.00;;;;8310562;28;20300;-65
2023/10/01 09:26:53;;;;;;;13.50;6.75;;;;;21.40;97358.00;;;;8311824;28;20667;-65
2023/10/01 09:31:02;;;;;;;15.27;6.00;;;;;21.70;97354.00;;;;8309620;28;20205;-65
2023/10/01 09:35:06;;;;;;;11.93;6.07;;;;;22.10;97362.00;;;;8316324;28;20229;-65
2023/10/01 09:39:10;;;;;;;13.82;7.30;;;;;22.60;97363.00;;;;8298197;28;20284;-65
2023/10/01 09:43:24;;;;;;;15.93;6.57;;;;;23.00;97354.00;;;;8311918;28;20293;-64
2023/10/01 09:47:30;;;;;;;13.93;6.65;;;;;23.40;97354.00;;;;8310800;28;20276;-65
2023/10/01 09:51:41;;;;;;;12.98;5.75;;;;;24.00;97337.00;;;;8311575;28;20811;-66
2023/10/01 09:55:48;;;;;;;15.23;6.75;;;;;24.60;97346.00;;;;8301835;28;20226;-65
2023/10/01 10:00:14;;;;;;;15.95;6.90;;;;;25.00;97344.00;;;;8304531;28;20279;-66
2023/10/01 10:04:20;;;;;;;15.90;7.85;;;;;25.40;97339.00;;;;8304620;28;20272;-66
2023/10/01 10:08:30;;;;;;;14.80;6.55;;;;;25.60;97348.00;;;;8304184;28;21057;-67
2023/10/01 10:12:37;;;;;;;13.38;6.90;;;;;25.70;97348.00;;;;8299628;28;20285;-66
2023/10/01 10:21:09;;;;;;;16.85;7.10;;;;;25.20;97337.00;;;;8472291;27;21162;-65
2023/10/01 10:25:25;;;;;;;16.45;7.03;;;;;24.90;97334.00;;;;8475624;28;20201;-65
2023/10/01 10:30:01;;;;;;;18.02;7.05;;;;;24.30;97337.00;;;;8467114;28;20283;-66
2023/10/01 10:34:24;;;;;;;20.13;7.15;;;;;24.10;97336.00;;;;8474255;27;20201;-66
2023/10/01 10:38:51;;;;;;;16.13;6.63;;;;;24.10;97335.00;;;;8471815;27;20233;-66
2023/10/01 10:43:21;;;;;;;16.35;6.72;;;;;23.90;97335.00;;;;8468134;28;20284;-66
2023/10/01 10:47:25;;;;;;;16.02;6.47;;;;;23.90;97338.00;;;;8471066;28;20248;-65
2023/10/01 10:51:48;;;;;;;14.60;6.00;;;;;23.90;97328.00;;;;8473349;28;20733;-65
2023/10/01 10:55:54;;;;;;;17.00;7.43;;;;;24.10;97330.00;;;;8467076;28;20197;-66
2023/10/01 10:59:57;;;;;;;16.30;6.30;;;;;24.10;97327.00;;;;8474294;27;20321;-66
2023/10/01 11:04:00;;;;;;;16.50;6.40;;;;;24.10;97326.00;;;;8457568;27;20919;-66
2023/10/01 11:08:03;;;;;;;17.27;7.07;;;;;24.10;97315.00;;;;8466710;27;20302;-66
2023/10/01 11:12:19;;;;;;;18.75;7.20;;;;;24.20;97312.00;;;;8458843;27;20278;-66
2023/10/01 11:16:24;;;;;;;16.00;7.40;;;;;24.30;97322.00;;;;8459549;28;20202;-66
2023/10/01 11:20:32;;;;;;;13.73;6.50;;;;;24.40;97305.00;;;;8457948;27;20243;-66
2023/10/01 11:24:39;;;;;;;13.75;5.53;;;;;24.60;97293.00;;;;8453830;28;21082;-66
2023/10/01 11:28:44;;;;;;;18.45;6.82;;;;;24.50;97300.00;;;;8463776;28;20199;-66
2023/10/01 11:33:12;;;;;;;13.02;6.65;;;;;24.40;97303.00;;;;8425230;27;20846;-66
2023/10/01 11:37:18;;;;;;;13.18;6.78;;;;;24.50;97306.00;;;;8453664;28;20194;-66
2023/10/01 11:41:38;;;;;;;13.43;6.55;;;;;24.60;97301.00;;;;8443849;28;20230;-66
2023/10/01 11:45:48;;;;;;;15.18;6.50;;;;;24.50;97287.00;;;;8441130;28;20198;-66
2023/10/01 11:50:07;;;;;;;17.70;6.60;;;;;24.30;97289.00;;;;8439466;27;20261;-67
2023/10/01 11:54:11;;;;;;;14.38;6.32;;;;;24.30;97293.00;;;;8433671;28;20202;-66
2023/10/01 11:58:16;;;;;;;15.63;6.90;;;;;24.30;97286.00;;;;8435412;28;20329;-66
2023/10/01 12:02:25;;;;;;;13.50;6.20;;;;;24.20;97269.00;;;;8438521;28;20248;-66
2023/10/01 12:06:34;;;;;;;15.00;6.43;;;;;24.30;97266.00;;;;8433003;28;20200;-66
2023/10/01 12:10:37;;;;;;;15.02;5.97;;;;;24.40;97256.00;;;;8432460;28;20241;-67
2023/10/01 12:14:53;;;;;;;16.40;7.03;;;;;24.40;97260.00;;;;8431957;28;20204;-66
2023/10/01 12:19:21;;;;;;;14.63;6.43;;;;;24.30;97261.00;;;;8441525;27;20229;-66
2023/10/01 12:23:26;;;;;;;16.33;6.15;;;;;24.20;97260.00;;;;8425098;28;20199;-66
2023/10/01 12:27:45;;;;;;;13.55;6.50;;;;;24.30;97249.00;;;;8429000;28;20207;-66
2023/10/01 12:31:49;;;;;;;13.55;6.70;;;;;24.20;97236.00;;;;8430480;28;20634;-66
2023/10/01 12:35:53;;;;;;;11.63;6.07;;;;;24.20;97240.00;;;;8436190;28;20204;-66
2023/10/01 12:40:14;;;;;;;12.68;5.88;;;;;24.20;97245.00;;;;8427832;28;20241;-66
2023/10/01 12:44:24;;;;;;;12.48;5.68;;;;;24.30;97235.00;;;;8426223;28;20188;-67
2023/10/01 12:48:28;;;;;;;14.45;6.90;;;;;24.30;97231.00;;;;8431517;28;20202;-67
2023/10/01 12:52:35;;;;;;;13.82;6.57;;;;;24.40;97232.00;;;;8424337;28;20564;-67
2023/10/01 12:57:03;;;;;;;12.70;5.95;;;;;24.30;97221.00;;;;8435203;28;20264;-67
2023/10/01 13:01:23;;;;;;;14.15;5.97;;;;;24.20;97224.00;;;;8426874;28;20226;-67
2023/10/01 13:05:27;;;;;;;13.60;6.32;;;;;24.20;97222.00;;;;8441523;28;20245;-66
2023/10/01 13:09:53;;;;;;;18.77;6.38;;;;;24.10;97217.00;;;;8439583;28;20195;-67
2023/10/01 13:14:08;;;;;;;14.15;6.43;;;;;24.30;97216.00;;;;8421250;28;20198;-67
2023/10/01 13:18:33;;;;;;;15.57;6.32;;;;;24.50;97212.00;;;;8437974;28;20225;-67
2023/10/01 13:22:38;;;;;;;14.20;6.40;;;;;24.60;97211.00;;;;8425490;27;20196;-67
2023/10/01 13:26:43;;;;;;;13.60;6.47;;;;;24.60;97203.00;;;;8433048;28;20195;-66
2023/10/01 13:31:04;;;;;;;12.38;6.40;;;;;24.60;97208.00;;;;8424838;28;20195;-67
2023/10/01 13:35:32;;;;;;;12.77;6.43;;;;;24.50;97201.00;;;;8410260;28;20247;-64
2023/10/01 13:39:52;;;;;;;19.23;6.82;;;;;24.50;97205.00;;;;8429587;28;20305;-64
2023/10/01 14:10:17;;;;;;;13.07;5.97;;;;;25.20;97183.00;;;;8414300;28;20750;-63
2023/10/01 14:14:20;;;;;;;12.57;5.60;;;;;25.40;97181.00;;;;8418884;28;20867;-64
2023/10/01 14:18:34;;;;;;;12.73;5.53;;;;;25.50;97173.00;;;;8434389;28;20206;-64
2023/10/01 14:22:49;;;;;;;13.05;5.75;;;;;25.60;97172.00;;;;8431231;28;20198;-64
2023/10/01 14:26:55;;;;;;;12.20;5.97;;;;;25.70;97157.00;;;;8435796;28;20202;-64
2023/10/01 14:31:05;;;;;;;16.65;5.85;;;;;25.80;97168.00;;;;8428284;28;20209;-63
2023/10/01 14:35:15;;;;;;;13.23;5.68;;;;;25.90;97167.00;;;;8438285;28;20202;-64
2023/10/01 14:39:19;;;;;;;13.20;5.75;;;;;26.00;97165.00;;;;8428798;28;20313;-63
2023/10/01 14:43:24;;;;;;;13.32;6.15;;;;;26.10;97174.00;;;;8428500;28;20203;-64
2023/10/01 14:47:28;;;;;;;10.57;5.43;;;;;26.20;97170.00;;;;8421946;28;20367;-63
2023/10/01 14:51:34;;;;;;;13.32;5.57;;;;;26.30;97165.00;;;;8417931;28;20203;-64
2023/10/01 14:55:43;;;;;;;15.40;6.45;;;;;26.50;97168.00;;;;8417286;28;20211;-64
2023/10/01 14:59:46;;;;;;;14.65;6.40;;;;;26.40;97165.00;;;;8418636;28;20753;-64
2023/10/01 15:03:53;;;;;;;13.90;6.50;;;;;26.30;97164.00;;;;8422077;28;20222;-63
2023/10/01 15:07:58;;;;;;;13.60;6.03;;;;;26.10;97167.00;;;;8428874;27;20257;-63
2023/10/01 15:12:04;;;;;;;14.50;6.38;;;;;25.80;97166.00;;;;8429661;28;20199;-63
2023/10/01 15:16:30;;;;;;;16.35;5.68;;;;;25.60;97167.00;;;;8433894;28;20201;-63
2023/10/01 15:20:54;;;;;;;14.05;6.63;;;;;25.40;97162.00;;;;8427325;28;20226;-65
2023/10/01 15:24:59;;;;;;;13.15;6.22;;;;;25.40;97148.00;;;;8435919;28;20237;-65
2023/10/01 15:29:05;;;;;;;17.45;6.85;;;;;25.50;97145.00;;;;8428576;28;20199;-64
2023/10/01 15:33:15;;;;;;;13.52;5.68;;;;;25.60;97151.00;;;;8436928;28;20197;-64
2023/10/01 15:37:18;;;;;;;16.13;7.25;;;;;25.70;97151.00;;;;8430361;28;20206;-64
2023/10/01 15:41:23;;;;;;;12.95;6.07;;;;;25.70;97155.00;;;;8430689;28;20283;-64
2023/10/01 15:45:30;;;;;;;15.05;6.32;;;;;25.70;97156.00;;;;8439987;28;20289;-65
2023/10/01 15:49:39;;;;;;;11.75;5.90;;;;;25.60;97162.00;;;;8436262;28;20282;-65
2023/10/01 15:53:42;;;;;;;13.00;6.03;;;;;25.50;97153.00;;;;8433299;28;20191;-64
2023/10/01 15:57:54;;;;;;;13.45;6.47;;;;;25.30;97156.00;;;;8433376;28;20714;-64
2023/10/01 16:01:59;;;;;;;15.10;6.78;;;;;25.10;97157.00;;;;8437477;28;20629;-62
2023/10/01 16:06:09;;;;;;;13.15;6.10;;;;;24.90;97152.00;;;;8431699;28;20194;-65
2023/10/01 16:10:19;;;;;;;14.20;6.35;;;;;24.60;97151.00;;;;8442933;28;20320;-65
2023/10/01 16:14:26;;;;;;;14.85;6.78;;;;;24.40;97141.00;;;;8429992;28;20263;-64
2023/10/01 16:18:30;;;;;;;15.35;6.93;;;;;24.10;97149.00;;;;8441039;28;20562;-65
2023/10/01 16:22:34;;;;;;;13.77;6.80;;;;;23.90;97143.00;;;;8438162;28;20698;-64
2023/10/01 16:26:44;;;;;;;17.88;6.90;;;;;23.50;97150.00;;;;8445991;28;20281;-64
2023/10/01 16:31:01;;;;;;;14.02;6.60;;;;;23.10;97145.00;;;;8435353;28;20191;-64
2023/10/01 16:35:17;;;;;;;18.55;6.90;;;;;22.70;97148.00;;;;8424889;28;20195;-66
2023/10/01 16:39:20;;;;;;;14.23;7.05;;;;;22.20;97147.00;;;;8423566;28;20229;-65
2023/10/01 16:43:25;;;;;;;18.30;6.70;;;;;21.70;97142.00;;;;8428439;28;20221;-64
2023/10/01 16:47:30;;;;;;;14.43;6.60;;;;;21.20;97149.00;;;;8422839;28;20921;-66
2023/10/01 16:51:35;;;;;;;16.67;7.40;;;;;20.80;97149.00;;;;8425099;28;20211;-65
2023/10/01 16:55:39;;;;;;;14.85;7.00;;;;;20.40;97147.00;;;;8440333;28;20303;-65
2023/10/01 16:59:56;;;;;;;13.55;6.15;;;;;20.00;97148.00;;;;8426720;28;20667;-65
2023/10/01 17:04:05;;;;;;;14.95;6.53;;;;;19.60;97151.00;;;;8438994;27;20221;-63
2023/10/01 17:08:18;;;;;;;14.63;6.63;;;;;19.20;97147.00;;;;8429422;28;20278;-63
2023/10/01 17:12:23;;;;;;;16.70;7.47;;;;;18.90;97150.00;;;;8428551;28;20416;-64
2023/10/01 17:16:31;;;;;;;19.55;7.18;;;;;18.60;97153.00;;;;8418416;28;20229;-64
2023/10/01 17:20:41;;;;;;;13.07;6.28;;;;;18.30;97158.00;;;;8432033;28;20754;-63
2023/10/01 17:24:50;;;;;;;18.33;6.63;;;;;18.00;97161.00;;;;8426120;28;20233;-63
2023/10/01 17:28:55;;;;;;;18.00;7.80;;;;;17.80;97163.00;;;;8418530;28;20218;-64
2023/10/01 17:33:01;;;;;;;20.75;7.40;;;;;17.60;97164.00;;;;8420706;28;20195;-63
2023/10/01 17:37:08;;;;;;;22.25;6.97;;;;;17.40;97167.00;;;;8425656;28;20195;-63
2023/10/01 17:41:22;;;;;;;16.27;7.40;;;;;17.20;97166.00;;;;8423496;28;20227;-64
2023/10/01 17:45:27;;;;;;;17.17;7.18;;;;;17.00;97163.00;;;;8420747;28;20250;-64
2023/10/01 17:49:30;;;;;;;18.52;7.68;;;;;16.90;97178.00;;;;8428846;27;20199;-64
2023/10/01 17:53:34;;;;;;;63.75;9.50;;;;;16.80;97171.00;;;;8430711;28;20194;-63
2023/10/01 17:57:38;;;;;;;15.13;7.05;;;;;16.60;97182.00;;;;8432742;28;20194;-63
2023/10/01 18:01:50;;;;;;;20.60;7.93;;;;;16.50;97173.00;;;;8418801;28;20227;-63
2023/10/01 18:06:02;;;;;;;22.25;7.40;;;;;16.40;97178.00;;;;8421633;28;20195;-64
2023/10/01 18:10:25;;;;;;;17.92;6.88;;;;;16.30;97177.00;;;;8420627;28;20326;-64
2023/10/01 18:14:33;;;;;;;17.88;7.07;;;;;16.20;97177.00;;;;8421596;28;20199;-63
2023/10/01 18:18:36;;;;;;;18.90;7.97;;;;;16.10;97180.00;;;;8413625;28;20720;-63
2023/10/01 18:22:49;;;;;;;17.23;7.45;;;;;15.90;97183.00;;;;8414338;28;20232;-63
2023/10/01 18:26:56;;;;;;;22.38;7.80;;;;;15.80;97179.00;;;;8422362;28;20192;-63
2023/10/01 18:31:03;;;;;;;19.38;7.18;;;;;15.70;97177.00;;;;8416833;28;20259;-63
2023/10/01 18:35:12;;;;;;;23.45;7.18;;;;;15.70;97186.00;;;;8423750;28;20197;-63
2023/10/01 18:39:26;;;;;;;18.92;6.97;;;;;15.50;97184.00;;;;8429277;28;20190;-63
2023/10/01 18:43:30;;;;;;;17.67;7.18;;;;;15.50;97186.00;;;;8425535;28;21070;-63
2023/10/01 18:47:35;;;;;;;20.70;7.97;;;;;15.30;97193.00;;;;8421437;28;20281;-63
2023/10/01 18:51:38;;;;;;;20.50;8.00;;;;;15.20;97195.00;;;;8421714;28;21794;-63
2023/10/01 18:55:42;;;;;;;19.27;7.22;;;;;15.20;97189.00;;;;8424918;28;20187;-63
2023/10/01 18:59:48;;;;;;;16.48;6.82;;;;;15.20;97192.00;;;;8437438;28;20697;-65
2023/10/01 19:03:51;;;;;;;17.05;7.22;;;;;15.10;97192.00;;;;8431070;28;20253;-64
2023/10/01 19:07:57;;;;;;;17.50;7.20;;;;;15.00;97189.00;;;;8425386;28;21044;-63
2023/10/01 19:12:03;;;;;;;21.75;7.80;;;;;14.90;97192.00;;;;8429699;28;20877;-63
2023/10/01 19:16:08;;;;;;;17.23;7.40;;;;;14.90;97190.00;;;;8424317;28;20195;-63
2023/10/01 19:20:15;;;;;;;18.95;7.68;;;;;14.70;97187.00;;;;8422285;28;20233;-64
2023/10/01 19:24:20;;;;;;;20.38;7.53;;;;;14.70;97188.00;;;;8426352;28;20199;-63
2023/10/01 19:28:27;;;;;;;17.30;6.88;;;;;14.60;97181.00;;;;8432280;28;20206;-63
2023/10/01 19:32:32;;;;;;;21.48;7.97;;;;;14.60;97183.00;;;;8424612;28;20251;-64
2023/10/01 19:36:36;;;;;;;20.48;7.68;;;;;14.50;97184.00;;;;8428652;28;20199;-64
2023/10/01 19:40:44;;;;;;;18.35;6.75;;;;;14.50;97189.00;;;;8424244;28;20321;-64
2023/10/01 19:44:47;;;;;;;20.17;7.80;;;;;14.40;97189.00;;;;8421832;28;20221;-64
2023/10/01 19:48:53;;;;;;;18.38;7.10;;;;;14.30;97189.00;;;;8427609;28;22480;-63
2023/10/01 19:52:56;;;;;;;20.85;8.43;;;;;14.30;97183.00;;;;8438478;28;20986;-63
2023/10/01 19:57:04;;;;;;;18.40;7.15;;;;;14.20;97185.00;;;;8445015;28;20244;-64
2023/10/01 20:01:14;;;;;;;19.67;6.97;;;;;14.10;97185.00;;;;8427192;28;20246;-64
2023/10/01 20:05:25;;;;;;;18.42;7.32;;;;;14.00;97179.00;;;;8424202;28;20233;-64
2023/10/01 20:09:32;;;;;;;16.50;7.75;;;;;14.00;97178.00;;;;8425086;28;20686;-64
2023/10/01 20:13:37;;;;;;;21.35;8.02;;;;;13.90;97183.00;;;;8427707;28;20232;-64
2023/10/01 20:17:43;;;;;;;21.58;8.73;;;;;13.80;97189.00;;;;8439690;28;20216;-64
2023/10/01 20:21:49;;;;;;;22.90;8.25;;;;;13.80;97187.00;;;;8421072;28;20728;-64
2023/10/01 20:25:54;;;;;;;21.30;7.38;;;;;13.70;97183.00;;;;8426193;28;20194;-64
2023/10/01 20:29:57;;;;;;;21.40;7.95;;;;;13.60;97183.00;;;;8434554;28;20222;-64
2023/10/01 20:34:00;;;;;;;18.55;8.15;;;;;13.50;97181.00;;;;8440359;28;20750;-64
2023/10/01 20:38:06;;;;;;;24.58;8.95;;;;;13.40;97176.00;;;;8428770;28;20197;-64
2023/10/01 20:42:14;;;;;;;23.50;8.90;;;;;13.30;97172.00;;;;8476455;27;20228;-63
2023/10/01 20:46:17;;;;;;;20.38;8.18;;;;;13.30;97172.00;;;;8479010;27;20305;-63
2023/10/01 20:50:30;;;;;;;19.27;8.50;;;;;13.30;97175.00;;;;8462209;27;20227;-63
2023/10/01 20:54:35;;;;;;;21.75;8.20;;;;;13.20;97172.00;;;;8484064;27;20201;-64
2023/10/01 20:58:42;;;;;;;24.15;9.30;;;;;13.10;97179.00;;;;8481242;27;20639;-63
2023/10/01 21:03:00;;;;;;;19.83;8.25;;;;;13.00;97170.00;;;;8468135;27;20277;-64
2023/10/01 21:07:07;;;;;;;24.98;9.07;;;;;13.00;97169.00;;;;8462679;27;20211;-64
2023/10/01 21:11:12;;;;;;;20.33;8.77;;;;;13.00;97169.00;;;;8468854;27;20592;-64
2023/10/01 21:15:20;;;;;;;23.88;9.95;;;;;13.00;97177.00;;;;8469675;27;20196;-64